Time;durP1;ratioP1;P1;durP2;ratioP2;P2;SDS_P1;SDS_P2;PMS_P1;PMS_P2;Temp;Humidity;BMP_temperature;BMP_pressure;BME280_temperature;BME280_humidity;BME280_pressure;Samples;Min_cycle;Max_cycle;Signal;HPM_P1;HPM_P2
2021/06/20 00:02:06;;;;;;;6.35;5.15;;;26.90;58.30;;;;;;5046252;28;20052;-52
2021/06/20 00:04:33;;;;;;;5.75;5.05;;;26.90;58.30;;;;;;5054580;28;20041;-55
2021/06/20 00:07:01;;;;;;;6.47;5.03;;;26.90;58.30;;;;;;5049954;28;20425;-52
2021/06/20 00:09:28;;;;;;;6.50;4.80;;;26.90;58.40;;;;;;5041957;28;20049;-53
2021/06/20 00:11:55;;;;;;;7.95;5.22;;;26.90;58.40;;;;;;5053270;28;20102;-51
2021/06/20 00:14:22;;;;;;;5.75;4.90;;;26.90;58.40;;;;;;5054350;28;20056;-53
2021/06/20 00:16:49;;;;;;;7.15;5.47;;;26.90;58.40;;;;;;5052324;28;20102;-54
2021/06/20 00:19:17;;;;;;;6.28;4.93;;;26.90;58.40;;;;;;5038157;28;20103;-53
2021/06/20 00:21:45;;;;;;;6.32;5.25;;;26.80;58.40;;;;;;5037727;28;20045;-55
2021/06/20 00:24:12;;;;;;;6.47;5.30;;;26.80;58.40;;;;;;5036241;28;20497;-55
2021/06/20 00:26:39;;;;;;;7.57;5.35;;;26.90;58.40;;;;;;5053821;28;20041;-52
2021/06/20 00:29:06;;;;;;;6.57;5.32;;;26.90;58.50;;;;;;5052107;28;20094;-54
2021/06/20 00:31:33;;;;;;;7.20;5.13;;;26.90;58.50;;;;;;5034832;28;20122;-57
2021/06/20 00:34:01;;;;;;;6.50;5.25;;;26.90;58.50;;;;;;5037186;28;20049;-54
2021/06/20 00:36:28;;;;;;;7.07;5.40;;;26.80;58.40;;;;;;5053552;28;20056;-52
2021/06/20 00:38:55;;;;;;;6.30;5.50;;;26.90;58.50;;;;;;5052628;28;20507;-54
2021/06/20 00:41:22;;;;;;;6.65;5.60;;;26.90;58.50;;;;;;5052785;28;20049;-52
2021/06/20 00:43:49;;;;;;;6.07;5.43;;;26.90;58.50;;;;;;5052723;28;20122;-54
2021/06/20 00:46:17;;;;;;;6.55;5.40;;;26.80;58.50;;;;;;5047940;28;20049;-53
2021/06/20 00:48:44;;;;;;;7.15;5.45;;;26.80;58.50;;;;;;5052982;28;20394;-54
2021/06/20 00:51:11;;;;;;;6.63;5.28;;;26.80;58.50;;;;;;5042080;28;20100;-50
2021/06/20 00:53:39;;;;;;;8.98;5.63;;;26.80;58.50;;;;;;5036446;28;20049;-55
2021/06/20 00:56:06;;;;;;;6.18;5.32;;;26.90;58.60;;;;;;5044865;28;20044;-57
2021/06/20 00:58:33;;;;;;;7.72;5.63;;;26.90;58.60;;;;;;5052561;28;20045;-55
2021/06/20 01:01:00;;;;;;;7.07;5.20;;;26.80;58.50;;;;;;5052248;28;20455;-54
2021/06/20 01:03:28;;;;;;;7.30;5.43;;;26.90;58.60;;;;;;5052445;28;20049;-54
2021/06/20 01:05:55;;;;;;;7.15;5.82;;;26.80;58.60;;;;;;5047885;28;20404;-50
2021/06/20 01:08:22;;;;;;;6.55;5.75;;;26.80;58.60;;;;;;5036313;28;20045;-56
2021/06/20 01:10:49;;;;;;;6.05;5.43;;;26.80;58.60;;;;;;5036200;28;20119;-52
2021/06/20 01:13:17;;;;;;;8.30;5.63;;;26.90;58.60;;;;;;5036152;28;20044;-55
2021/06/20 01:15:48;;;;;;;9.00;5.03;;;26.80;58.60;;;;;;5038462;28;20037;-57
2021/06/20 01:18:17;;;;;;;5.93;5.28;;;26.80;58.60;;;;;;5051501;28;20049;-57
2021/06/20 01:20:45;;;;;;;6.35;5.32;;;26.80;58.60;;;;;;5035755;28;20041;-55
2021/06/20 01:23:12;;;;;;;6.22;5.63;;;26.80;58.60;;;;;;5052127;28;20097;-57
2021/06/20 01:25:42;;;;;;;6.55;5.75;;;26.80;58.60;;;;;;5052335;28;20052;-49
2021/06/20 01:28:11;;;;;;;6.93;5.80;;;26.80;58.70;;;;;;5051336;28;20045;-57
2021/06/20 01:30:45;;;;;;;7.40;5.90;;;26.80;58.70;;;;;;5050362;28;20562;-52
2021/06/20 01:33:14;;;;;;;6.32;5.40;;;26.80;58.70;;;;;;5068500;28;20045;-55
2021/06/20 01:35:42;;;;;;;6.43;5.60;;;26.80;58.70;;;;;;5035741;28;20488;-54
2021/06/20 01:38:10;;;;;;;7.15;6.05;;;26.80;58.70;;;;;;5035361;28;20037;-54
2021/06/20 01:40:37;;;;;;;6.90;6.03;;;26.80;58.70;;;;;;5035583;28;20520;-49
2021/06/20 01:43:05;;;;;;;6.97;5.70;;;26.80;58.70;;;;;;5049744;28;20041;-50
2021/06/20 01:45:32;;;;;;;8.30;6.30;;;26.80;58.70;;;;;;5051620;28;20466;-55
2021/06/20 01:47:59;;;;;;;6.95;5.20;;;26.80;58.70;;;;;;5038970;28;20080;-54
2021/06/20 01:50:28;;;;;;;7.93;5.80;;;26.80;58.70;;;;;;5047625;28;20099;-54
2021/06/20 01:53:10;;;;;;;7.28;5.90;;;26.80;58.70;;;;;;5040406;28;20060;-49
2021/06/20 01:55:40;;;;;;;6.97;5.85;;;26.80;58.70;;;;;;5047980;28;20056;-55
2021/06/20 01:58:09;;;;;;;7.35;6.53;;;26.80;58.70;;;;;;5043279;28;20076;-57
2021/06/20 02:00:38;;;;;;;7.00;6.07;;;26.80;58.80;;;;;;5050852;28;20052;-57
2021/06/20 02:03:08;;;;;;;8.63;5.82;;;26.80;58.80;;;;;;5054417;28;20045;-56
2021/06/20 02:05:36;;;;;;;7.25;5.90;;;26.80;58.80;;;;;;5056693;28;20044;-52
2021/06/20 02:08:04;;;;;;;7.95;5.90;;;26.80;58.80;;;;;;5057126;28;20041;-51
2021/06/20 02:10:32;;;;;;;7.18;5.97;;;26.80;58.80;;;;;;5055662;28;20443;-52
2021/06/20 02:12:59;;;;;;;6.88;6.10;;;26.80;58.80;;;;;;5054527;28;20052;-52
2021/06/20 02:15:26;;;;;;;7.07;5.72;;;26.80;58.90;;;;;;5054962;28;20081;-51
2021/06/20 02:17:54;;;;;;;8.00;5.97;;;26.80;58.80;;;;;;5054490;28;20044;-56
2021/06/20 02:20:21;;;;;;;6.82;5.45;;;26.80;58.80;;;;;;5055481;28;20045;-51
2021/06/20 02:22:51;;;;;;;7.00;5.82;;;26.80;58.80;;;;;;5055332;28;20099;-49
2021/06/20 02:25:21;;;;;;;6.38;5.18;;;26.70;58.80;;;;;;5055569;28;20041;-50
2021/06/20 02:27:52;;;;;;;6.90;6.03;;;26.80;58.80;;;;;;5054293;28;20044;-50
2021/06/20 02:30:20;;;;;;;7.57;6.32;;;26.70;58.80;;;;;;5054223;28;20547;-54
2021/06/20 02:32:49;;;;;;;7.38;6.18;;;26.70;58.80;;;;;;5055538;28;20101;-55
2021/06/20 02:35:17;;;;;;;6.80;6.10;;;26.70;58.80;;;;;;5056574;28;20118;-53
2021/06/20 02:37:47;;;;;;;6.20;5.53;;;26.80;58.90;;;;;;5053974;28;20045;-54
2021/06/20 02:40:16;;;;;;;7.07;5.85;;;26.80;58.90;;;;;;5055077;28;20067;-53
2021/06/20 02:42:45;;;;;;;7.50;6.03;;;26.70;58.80;;;;;;5055657;28;20044;-52
2021/06/20 02:45:15;;;;;;;7.43;6.00;;;26.70;58.80;;;;;;5045558;28;20045;-53
2021/06/20 02:47:44;;;;;;;7.45;6.65;;;26.70;58.80;;;;;;5055295;28;20045;-54
2021/06/20 02:50:12;;;;;;;6.95;5.72;;;26.70;58.80;;;;;;5036965;28;20090;-52
2021/06/20 02:52:40;;;;;;;6.18;5.55;;;26.70;58.80;;;;;;5055122;28;20064;-54
2021/06/20 02:55:07;;;;;;;7.07;6.07;;;26.70;58.80;;;;;;5037809;28;20053;-52
2021/06/20 02:57:35;;;;;;;6.72;5.85;;;26.70;58.80;;;;;;5039610;28;20050;-53
2021/06/20 03:00:04;;;;;;;6.93;6.07;;;26.70;58.80;;;;;;5039338;28;20050;-52
2021/06/20 03:02:31;;;;;;;6.90;5.80;;;26.70;58.80;;;;;;5039734;28;20103;-52
2021/06/20 03:04:59;;;;;;;7.15;6.28;;;26.70;58.80;;;;;;5052771;28;20448;-55
2021/06/20 03:07:27;;;;;;;7.20;6.07;;;26.70;58.80;;;;;;5054239;28;20049;-55
2021/06/20 03:09:55;;;;;;;7.00;6.20;;;26.70;58.80;;;;;;5065030;28;20094;-53
2021/06/20 03:12:22;;;;;;;6.93;6.07;;;26.80;58.90;;;;;;5059116;28;20550;-52
2021/06/20 03:14:50;;;;;;;7.53;5.28;;;26.80;58.90;;;;;;5053262;28;20048;-53
2021/06/20 03:17:18;;;;;;;7.07;6.10;;;26.70;58.80;;;;;;5046742;28;20049;-52
2021/06/20 03:19:46;;;;;;;7.72;6.03;;;26.70;59.40;;;;;;5044262;28;20494;-54
2021/06/20 03:22:14;;;;;;;7.13;5.65;;;26.80;58.80;;;;;;5044966;28;20493;-50
2021/06/20 03:24:47;;;;;;;7.13;6.05;;;26.80;58.80;;;;;;5047857;28;20045;-54
2021/06/20 03:27:15;;;;;;;6.47;5.82;;;26.80;58.80;;;;;;5044305;28;20107;-51
2021/06/20 03:29:45;;;;;;;6.00;5.40;;;26.80;58.80;;;;;;5052984;28;20041;-55
2021/06/20 03:32:13;;;;;;;7.97;6.00;;;26.80;58.80;;;;;;5054066;28;20056;-56
2021/06/20 03:34:40;;;;;;;7.75;5.90;;;26.80;58.70;;;;;;5052823;28;20106;-55
2021/06/20 03:37:07;;;;;;;6.97;6.28;;;26.80;58.70;;;;;;5051280;28;20457;-53
2021/06/20 03:39:35;;;;;;;7.47;6.45;;;26.80;58.70;;;;;;5037539;28;20044;-53
2021/06/20 03:42:03;;;;;;;7.57;6.45;;;26.80;58.60;;;;;;5040129;28;20044;-53
2021/06/20 03:44:30;;;;;;;8.63;5.95;;;26.90;58.60;;;;;;5053362;28;20041;-54
2021/06/20 03:46:58;;;;;;;6.68;5.63;;;26.90;58.60;;;;;;5052737;28;20106;-54
2021/06/20 03:49:26;;;;;;;6.88;5.80;;;26.90;58.60;;;;;;5037039;28;20057;-53
2021/06/20 03:51:53;;;;;;;8.15;5.90;;;26.90;58.50;;;;;;5053168;28;20064;-51
2021/06/20 03:54:22;;;;;;;6.95;6.25;;;26.90;58.50;;;;;;5037672;28;20054;-53
2021/06/20 03:56:49;;;;;;;6.97;6.00;;;26.90;58.50;;;;;;5053713;28;20049;-51
2021/06/20 03:59:17;;;;;;;7.57;6.15;;;26.90;58.40;;;;;;5038191;28;20062;-53
2021/06/20 04:01:44;;;;;;;6.00;5.40;;;27.00;58.40;;;;;;5053083;28;20106;-56
2021/06/20 04:04:12;;;;;;;7.38;6.65;;;27.00;58.40;;;;;;5055508;28;20128;-54
2021/06/20 04:06:39;;;;;;;7.05;6.15;;;27.00;58.30;;;;;;5052356;28;20049;-53
2021/06/20 04:09:06;;;;;;;9.45;6.20;;;27.00;58.30;;;;;;5054848;28;20460;-54
2021/06/20 04:11:34;;;;;;;7.30;6.32;;;27.00;58.20;;;;;;5042497;28;20053;-53
2021/06/20 04:14:01;;;;;;;8.43;6.35;;;27.00;58.20;;;;;;5048203;28;20114;-55
2021/06/20 04:16:28;;;;;;;6.93;6.13;;;27.10;58.20;;;;;;5044409;28;20107;-52
2021/06/20 04:18:57;;;;;;;6.85;5.88;;;27.10;58.10;;;;;;5045447;28;20102;-54
2021/06/20 04:21:24;;;;;;;6.85;6.15;;;27.10;58.10;;;;;;5052968;28;20048;-54
2021/06/20 04:23:52;;;;;;;8.38;6.22;;;27.10;57.90;;;;;;5053122;28;20081;-55
2021/06/20 04:26:20;;;;;;;6.53;5.82;;;27.20;57.90;;;;;;5053227;28;20447;-54
2021/06/20 04:28:47;;;;;;;7.10;6.05;;;27.20;58.50;;;;;;5053169;28;20067;-55
2021/06/20 04:31:14;;;;;;;6.60;5.72;;;27.20;57.80;;;;;;5049610;28;20444;-53
2021/06/20 04:33:41;;;;;;;7.45;5.53;;;27.30;57.80;;;;;;5036983;28;20052;-54
2021/06/20 04:36:09;;;;;;;6.57;5.93;;;27.30;57.70;;;;;;5040600;28;20041;-53
2021/06/20 04:38:37;;;;;;;7.18;5.65;;;27.30;57.60;;;;;;5052756;28;20052;-54
2021/06/20 04:41:07;;;;;;;7.22;5.43;;;27.30;57.60;;;;;;5052886;28;20079;-53
2021/06/20 04:43:40;;;;;;;6.55;5.85;;;27.40;57.60;;;;;;5037032;28;20051;-53
2021/06/20 04:46:19;;;;;;;;;;;27.40;57.50;;;;;;5053915;28;20045;-54
2021/06/20 04:48:46;;;;;;;;;;;27.40;57.40;;;;;;5054154;28;19920;-54
2021/06/20 04:51:13;;;;;;;;;;;27.40;57.30;;;;;;5037117;28;19966;-51
2021/06/20 04:53:40;;;;;;;;;;;27.50;57.30;;;;;;5053639;28;20015;-54
2021/06/20 04:56:08;;;;;;;;;;;27.50;57.20;;;;;;5053654;28;19921;-53
2021/06/20 04:58:35;;;;;;;;;;;27.50;57.10;;;;;;5053460;28;19970;-55
2021/06/20 05:01:02;;;;;;;;;;;27.60;57.10;;;;;;5053627;28;19924;-58
2021/06/20 05:03:29;;;;;;;;;;;27.60;57.10;;;;;;5036647;28;19920;-55
2021/06/20 05:05:56;;;;;;;;;;;27.60;57.10;;;;;;5065494;28;19956;-52
2021/06/20 05:08:23;;;;;;;;;;;27.60;57.00;;;;;;5052979;28;19960;-51
2021/06/20 05:10:53;;;;;;;;;;;27.70;57.10;;;;;;5053056;28;19921;-55
2021/06/20 05:13:21;;;;;;;;;;;27.60;57.00;;;;;;5052656;28;19920;-55
2021/06/20 05:15:48;;;;;;;;;;;27.70;57.00;;;;;;5053650;28;19920;-55
2021/06/20 05:18:15;;;;;;;;;;;27.70;56.90;;;;;;5052899;28;19966;-54
2021/06/20 05:20:42;;;;;;;;;;;27.70;56.80;;;;;;5052742;28;19920;-55
2021/06/20 05:23:09;;;;;;;;;;;27.70;56.80;;;;;;5043311;28;19960;-56
2021/06/20 05:25:35;;;;;;;;;;;27.80;56.90;;;;;;5036630;28;20331;-53
2021/06/20 05:28:03;;;;;;;;;;;27.80;56.70;;;;;;5045261;28;19974;-56
2021/06/20 05:30:30;;;;;;;;;;;27.80;56.70;;;;;;5045595;28;19921;-56
2021/06/20 05:32:57;;;;;;;;;;;27.80;56.60;;;;;;5041833;28;20019;-54
2021/06/20 05:35:24;;;;;;;;;;;27.90;56.60;;;;;;5048735;28;20369;-54
2021/06/20 05:37:51;;;;;;;;;;;27.80;56.40;;;;;;5036217;28;19921;-55
2021/06/20 05:40:18;;;;;;;;;;;27.90;56.50;;;;;;5036312;28;19921;-53
2021/06/20 05:42:45;;;;;;;;;;;27.90;56.40;;;;;;5037574;28;19920;-55
2021/06/20 05:45:13;;;;;;;;;;;27.90;56.30;;;;;;5037326;28;20360;-55
2021/06/20 05:47:41;;;;;;;;;;;27.90;56.30;;;;;;5052387;28;20292;-55
2021/06/20 05:50:08;;;;;;;;;;;28.00;56.30;;;;;;5051781;28;19990;-56
2021/06/20 05:52:35;;;;;;;;;;;28.00;56.20;;;;;;5053511;28;20312;-57
2021/06/20 05:55:03;;;;;;;;;;;28.00;56.10;;;;;;5052647;28;19944;-53
2021/06/20 05:57:30;;;;;;;;;;;28.00;56.10;;;;;;5052438;28;19925;-56
2021/06/20 05:59:57;;;;;;;;;;;28.00;56.00;;;;;;5051048;28;19921;-53
2021/06/20 06:02:24;;;;;;;;;;;28.10;56.10;;;;;;5052047;28;20396;-52
2021/06/20 06:04:51;;;;;;;;;;;28.10;56.00;;;;;;5052391;28;20010;-56
2021/06/20 06:07:18;;;;;;;;;;;28.10;55.90;;;;;;5038444;28;19943;-53
2021/06/20 06:09:45;;;;;;;;;;;28.10;55.90;;;;;;5035778;28;20369;-53
2021/06/20 06:12:12;;;;;;;;;;;28.10;55.80;;;;;;5049967;28;19924;-52
2021/06/20 06:14:39;;;;;;;;;;;28.10;55.80;;;;;;5053556;28;19959;-55
2021/06/20 06:17:06;;;;;;;;;;;28.10;55.80;;;;;;5052372;28;20315;-50
2021/06/20 06:19:33;;;;;;;;;;;28.10;55.80;;;;;;5052280;28;19925;-53
2021/06/20 06:22:00;;;;;;;;;;;28.10;55.80;;;;;;5067194;28;19921;-52
2021/06/20 06:24:27;;;;;;;;;;;28.20;55.70;;;;;;5044792;28;19921;-54
2021/06/20 06:26:54;;;;;;;;;;;28.20;55.70;;;;;;5042173;28;19967;-56
2021/06/20 06:29:21;;;;;;;;;;;28.20;55.70;;;;;;5051719;28;20476;-56
2021/06/20 06:31:48;;;;;;;;;;;28.20;55.70;;;;;;5053194;28;19920;-53
2021/06/20 06:34:15;;;;;;;;;;;28.20;55.70;;;;;;5048836;28;19925;-54
2021/06/20 06:36:42;;;;;;;;;;;28.20;55.70;;;;;;5037700;28;20015;-53
2021/06/20 06:39:09;;;;;;;;;;;28.20;55.70;;;;;;5039100;28;19920;-54
2021/06/20 06:41:36;;;;;;;;;;;28.20;55.70;;;;;;5053205;28;20351;-54
2021/06/20 06:44:03;;;;;;;;;;;28.20;55.70;;;;;;5054605;28;19924;-54
2021/06/20 06:46:30;;;;;;;;;;;28.10;55.60;;;;;;5056464;28;19924;-55
2021/06/20 06:48:57;;;;;;;;;;;28.20;55.70;;;;;;5054530;28;19920;-54
2021/06/20 06:51:24;;;;;;;;;;;28.10;55.60;;;;;;5054163;28;19971;-57
2021/06/20 06:53:51;;;;;;;;;;;28.20;55.70;;;;;;5055595;28;19924;-52
2021/06/20 06:56:19;;;;;;;;;;;28.20;55.70;;;;;;5056406;28;19952;-51
2021/06/20 06:58:46;;;;;;;;;;;28.20;55.70;;;;;;5040967;28;19952;-55
2021/06/20 07:01:13;;;;;;;;;;;28.20;55.70;;;;;;5051484;28;19921;-54
2021/06/20 07:03:40;;;;;;;;;;;28.20;55.70;;;;;;5042057;28;19921;-54
2021/06/20 07:06:09;;;;;;;;;;;28.20;56.20;;;;;;5051032;28;20281;-51
2021/06/20 07:08:36;;;;;;;;;;;28.20;55.60;;;;;;5044693;28;19921;-55
2021/06/20 07:11:04;;;;;;;;;;;28.20;55.70;;;;;;5049106;28;19952;-53
2021/06/20 07:13:31;;;;;;;;;;;28.20;55.70;;;;;;5054750;28;19974;-54
2021/06/20 07:15:58;;;;;;;;;;;28.20;55.70;;;;;;5056313;28;20011;-54
2021/06/20 07:18:26;;;;;;;;;;;28.20;55.70;;;;;;5047556;28;19921;-55
2021/06/20 07:20:53;;;;;;;;;;;28.10;55.60;;;;;;5038442;28;19921;-55
2021/06/20 07:23:20;;;;;;;;;;;28.20;55.70;;;;;;5045709;28;19921;-53
2021/06/20 07:25:47;;;;;;;;;;;28.20;55.70;;;;;;5051922;28;19921;-54
2021/06/20 07:28:15;;;;;;;;;;;28.20;55.70;;;;;;5044472;28;19921;-54
2021/06/20 07:30:42;;;;;;;;;;;28.20;55.60;;;;;;5039707;28;19990;-56
2021/06/20 07:33:09;;;;;;;;;;;28.20;55.60;;;;;;5041471;28;19970;-54
2021/06/20 07:35:36;;;;;;;;;;;28.20;55.70;;;;;;5056007;28;20378;-54
2021/06/20 07:38:03;;;;;;;;;;;28.20;56.20;;;;;;5055910;28;19921;-57
2021/06/20 07:40:30;;;;;;;;;;;28.20;55.60;;;;;;5055387;28;19928;-56
2021/06/20 07:42:57;;;;;;;;;;;28.20;55.60;;;;;;5053874;28;19994;-56
2021/06/20 07:45:24;;;;;;;;;;;28.20;55.60;;;;;;5052863;28;19924;-51
2021/06/20 07:47:53;;;;;;;;;;;28.20;55.60;;;;;;5053461;28;20338;-57
2021/06/20 07:50:20;;;;;;;;;;;28.20;55.60;;;;;;5054243;28;19920;-55
2021/06/20 07:52:48;;;;;;;;;;;28.20;55.70;;;;;;5039378;28;19975;-54
2021/06/20 07:55:15;;;;;;;;;;;28.20;55.70;;;;;;5053102;28;19952;-52
2021/06/20 07:57:42;;;;;;;;;;;28.20;55.70;;;;;;5041092;28;20011;-56
2021/06/20 08:00:10;;;;;;;;;;;28.20;55.70;;;;;;5050741;28;19920;-52
2021/06/20 08:02:37;;;;;;;;;;;28.20;55.70;;;;;;5054368;28;19944;-55
2021/06/20 08:05:05;;;;;;;;;;;28.20;55.70;;;;;;5055094;28;20003;-55
2021/06/20 08:07:32;;;;;;;;;;;28.30;55.80;;;;;;5069215;28;19925;-52
2021/06/20 08:09:59;;;;;;;;;;;28.30;55.70;;;;;;5044572;28;19971;-53
2021/06/20 08:12:27;;;;;;;;;;;28.30;55.70;;;;;;5037367;28;19920;-52
2021/06/20 08:14:55;;;;;;;;;;;28.30;55.70;;;;;;5037739;28;20000;-51
2021/06/20 08:17:23;;;;;;;;;;;28.30;55.70;;;;;;5037286;28;19971;-55
2021/06/20 08:19:50;;;;;;;;;;;28.30;55.70;;;;;;5037396;28;19973;-55
2021/06/20 08:22:18;;;;;;;;;;;28.30;55.70;;;;;;5037585;28;19950;-52
2021/06/20 08:24:46;;;;;;;;;;;28.30;55.60;;;;;;5041845;28;19999;-53
2021/06/20 08:27:13;;;;;;;;;;;28.30;55.70;;;;;;5054829;28;19928;-55
2021/06/20 08:29:43;;;;;;;;;;;28.30;55.70;;;;;;5053346;28;19921;-55
2021/06/20 08:32:12;;;;;;;;;;;28.30;55.60;;;;;;5052332;28;20427;-53
2021/06/20 08:34:39;;;;;;;;;;;28.30;55.60;;;;;;5036989;28;19967;-55
2021/06/20 08:37:06;;;;;;;;;;;28.40;55.70;;;;;;5038660;28;19920;-56
2021/06/20 08:39:32;;;;;;;;;;;28.40;55.60;;;;;;5054091;28;19998;-55
2021/06/20 08:42:00;;;;;;;;;;;28.40;55.60;;;;;;5052274;28;19974;-55
2021/06/20 08:44:29;;;;;;;;;;;28.40;55.60;;;;;;5049503;28;19967;-53
2021/06/20 08:46:56;;;;;;;;;;;28.40;55.50;;;;;;5052259;28;19920;-57
2021/06/20 08:49:24;;;;;;;;;;;28.50;55.50;;;;;;5053589;28;19972;-52
2021/06/20 08:51:52;;;;;;;;;;;28.50;55.50;;;;;;5052229;28;20012;-54
2021/06/20 08:54:19;;;;;;;;;;;28.50;55.40;;;;;;5037566;28;19921;-52
2021/06/20 08:56:48;;;;;;;;;;;28.50;55.40;;;;;;5051030;28;19924;-56
2021/06/20 08:59:16;;;;;;;;;;;28.50;55.40;;;;;;5052855;28;19970;-57
2021/06/20 09:01:43;;;;;;;;;;;28.50;55.40;;;;;;5054103;28;19925;-55
2021/06/20 09:04:10;;;;;;;;;;;28.60;55.50;;;;;;5053186;28;20341;-53
2021/06/20 09:06:38;;;;;;;;;;;28.60;55.40;;;;;;5052504;28;19921;-53
2021/06/20 09:09:08;;;;;;;;;;;28.60;55.30;;;;;;5042614;28;19964;-55
2021/06/20 09:11:39;;;;;;;;;;;28.60;55.30;;;;;;5036668;28;19921;-53
2021/06/20 09:14:06;;;;;;;;;;;28.60;55.30;;;;;;5045808;28;19928;-53
2021/06/20 09:16:45;;;;;;;;;;;28.60;55.40;;;;;;5045817;28;19928;-53
2021/06/20 09:19:12;;;;;;;;;;;28.60;55.30;;;;;;5037689;28;19928;-55
2021/06/20 09:21:50;;;;;;;;;;;28.70;55.30;;;;;;5037013;28;19929;-55
2021/06/20 09:24:17;;;;;;;;;;;28.70;55.20;;;;;;5046146;28;19921;-55
2021/06/20 09:26:45;;;;;;;;;;;28.70;55.10;;;;;;5051866;28;19974;-52
2021/06/20 09:29:12;;;;;;;;;;;28.80;55.10;;;;;;5053356;28;19924;-53
2021/06/20 09:31:49;;;;;;;;;;;28.80;55.00;;;;;;5053573;28;19924;-57
2021/06/20 09:34:16;;;;;;;;;;;28.80;54.90;;;;;;5052311;28;19920;-53
2021/06/20 09:36:44;;;;;;;;;;;28.80;54.80;;;;;;5052568;28;19967;-56
2021/06/20 09:39:18;;;;;;;;;;;28.90;55.50;;;;;;5051322;28;19955;-52
2021/06/20 09:42:01;;;;;;;;;;;28.90;54.70;;;;;;5056574;28;19935;-53
2021/06/20 09:44:34;;;;;;;;;;;28.90;54.60;;;;;;5062459;28;19978;-55
2021/06/20 09:47:02;;;;;;;;;;;29.00;54.60;;;;;;5046724;28;19921;-53
2021/06/20 09:49:29;;;;;;;;;;;29.00;54.60;;;;;;5040881;28;19920;-56
2021/06/20 09:51:57;;;;;;;;;;;29.00;54.50;;;;;;5052567;28;19920;-53
2021/06/20 09:54:31;;;;;;;;;;;29.10;54.40;;;;;;5052474;28;19956;-52
2021/06/20 09:56:58;;;;;;;;;;;29.10;54.40;;;;;;5049522;28;19929;-52
2021/06/20 09:59:27;;;;;;;;;;;29.10;54.40;;;;;;5036648;28;19921;-54
2021/06/20 10:01:54;;;;;;;;;;;29.10;54.40;;;;;;5035791;28;20015;-55
2021/06/20 10:04:22;;;;;;;;;;;29.10;54.30;;;;;;5035838;28;19925;-56
2021/06/20 10:06:49;;;;;;;;;;;29.10;54.40;;;;;;5035593;28;20330;-53
2021/06/20 10:09:16;;;;;;;;;;;29.10;54.40;;;;;;5034638;28;19975;-54
2021/06/20 10:11:43;;;;;;;;;;;29.10;54.40;;;;;;5052382;28;19966;-56
2021/06/20 10:14:10;;;;;;;;;;;29.10;54.30;;;;;;5035414;28;19921;-55
2021/06/20 10:16:39;;;;;;;;;;;29.10;54.30;;;;;;5037118;28;19928;-54
2021/06/20 10:19:18;;;;;;;;;;;29.10;54.30;;;;;;5040602;28;19921;-58
2021/06/20 10:21:46;;;;;;;;;;;29.10;54.30;;;;;;5055996;28;19920;-56
2021/06/20 10:24:15;;;;;;;;;;;29.10;54.40;;;;;;5056166;28;20330;-56
2021/06/20 10:26:51;;;;;;;;;;;29.10;54.40;;;;;;5055704;28;19925;-57
2021/06/20 10:29:36;;;;;;;;;;;29.10;54.40;;;;;;5054525;28;19924;-57
2021/06/20 10:32:19;;;;;;;;;;;29.10;54.40;;;;;;5054942;28;19920;-56
2021/06/20 10:35:00;;;;;;;;;;;29.10;54.50;;;;;;5039009;28;19968;-54
2021/06/20 10:37:31;;;;;;;;;;;29.10;54.50;;;;;;5055033;28;19968;-53
2021/06/20 10:40:00;;;;;;;;;;;29.00;54.50;;;;;;5038302;28;19921;-52
2021/06/20 10:42:37;;;;;;;;;;;29.00;54.50;;;;;;5055259;28;19921;-56
2021/06/20 10:45:06;;;;;;;;;;;29.00;54.60;;;;;;5045468;28;20015;-56
2021/06/20 10:47:35;;;;;;;;;;;29.00;54.60;;;;;;5036878;28;19979;-55
2021/06/20 10:50:13;;;;;;;;;;;29.00;54.60;;;;;;5040869;28;19991;-57
2021/06/20 10:52:41;;;;;;;;;;;29.00;54.60;;;;;;5055179;28;20346;-57
2021/06/20 10:55:15;;;;;;;;;;;29.00;54.60;;;;;;5039764;28;20320;-55
2021/06/20 10:57:44;;;;;;;;;;;29.00;54.70;;;;;;5054672;28;19995;-54
2021/06/20 11:00:12;;;;;;;;;;;29.00;54.70;;;;;;5039946;28;19925;-52
2021/06/20 11:02:39;;;;;;;;;;;29.00;54.70;;;;;;5054212;28;19921;-53
2021/06/20 11:05:07;;;;;;;;;;;29.00;54.70;;;;;;5055380;28;20288;-55
2021/06/20 11:07:34;;;;;;;;;;;29.00;54.70;;;;;;5056510;28;20004;-55
2021/06/20 11:10:02;;;;;;;;;;;29.10;54.70;;;;;;5056051;28;19921;-54
2021/06/20 11:12:29;;;;;;;;;;;29.10;54.70;;;;;;5044499;28;19968;-56
2021/06/20 11:14:57;;;;;;;;;;;29.10;54.70;;;;;;5049868;28;19921;-55
2021/06/20 11:17:33;;;;;;;;;;;29.10;54.70;;;;;;5056112;28;19920;-56
2021/06/20 11:20:09;;;;;;;;;;;29.10;54.70;;;;;;5054750;28;20427;-55
2021/06/20 11:22:37;;;;;;;;;;;29.10;54.70;;;;;;5055037;28;20361;-55
2021/06/20 11:25:04;;;;;;;;;;;29.10;55.30;;;;;;5056058;28;19920;-52
2021/06/20 11:27:31;;;;;;;;;;;29.10;54.70;;;;;;5051551;28;19936;-53
2021/06/20 11:29:59;;;;;;;;;;;29.10;54.70;;;;;;5054401;28;19920;-56
2021/06/20 11:32:31;;;;;;;;;;;29.10;54.60;;;;;;5054898;28;20320;-52
2021/06/20 11:35:04;;;;;;;;;;;29.10;54.60;;;;;;5054478;28;20411;-52
2021/06/20 11:37:32;;;;;;;;;;;29.10;54.60;;;;;;5048178;28;19921;-57
2021/06/20 11:40:00;;;;;;;;;;;29.20;54.60;;;;;;5038337;28;19921;-55
2021/06/20 11:42:27;;;;;;;;;;;29.10;54.50;;;;;;5035966;28;20321;-55
2021/06/20 11:44:55;;;;;;;;;;;29.20;54.60;;;;;;5042722;28;19986;-53
2021/06/20 11:47:26;;;;;;;;;;;29.10;54.50;;;;;;5054677;28;19925;-55
2021/06/20 11:49:53;;;;;;;;;;;29.20;54.50;;;;;;5052442;28;20859;-58
2021/06/20 11:52:24;;;;;;;;;;;29.20;54.50;;;;;;5039698;28;19921;-53
2021/06/20 11:55:04;;;;;;;;;;;29.20;54.50;;;;;;5052941;28;19929;-53
2021/06/20 11:57:32;;;;;;;;;;;29.20;54.50;;;;;;5041303;28;19924;-53
2021/06/20 12:00:09;;;;;;;;;;;29.20;54.60;;;;;;5055093;28;19920;-53
2021/06/20 12:02:36;;;;;;;;;;;29.20;54.50;;;;;;5055327;28;19976;-52
2021/06/20 12:05:04;;;;;;;;;;;29.20;54.50;;;;;;5055067;28;20015;-53
2021/06/20 12:07:31;;;;;;;;;;;29.20;54.50;;;;;;5052924;28;19943;-54
2021/06/20 12:09:59;;;;;;;;;;;29.20;54.50;;;;;;5036511;28;19921;-57
2021/06/20 12:12:26;;;;;;;;;;;29.20;54.50;;;;;;5054239;28;19920;-51
2021/06/20 12:14:58;;;;;;;;;;;29.20;54.50;;;;;;5054251;28;20031;-53
2021/06/20 12:17:27;;;;;;;;;;;29.20;54.50;;;;;;5053049;28;19920;-53
2021/06/20 12:19:56;;;;;;;;;;;29.20;54.50;;;;;;5053823;28;19921;-51
2021/06/20 12:22:23;;;;;;;;;;;29.20;54.50;;;;;;5054922;28;19950;-53
2021/06/20 12:25:01;;;;;;;;;;;29.20;54.50;;;;;;5037709;28;20012;-54
2021/06/20 12:27:29;;;;;;;;;;;29.20;55.10;;;;;;5052982;28;20414;-55
2021/06/20 12:29:56;;;;;;;;;;;29.20;54.50;;;;;;5054493;28;19921;-53
2021/06/20 12:32:23;;;;;;;;;;;29.20;54.50;;;;;;5039033;28;20419;-54
2021/06/20 12:34:51;;;;;;;;;;;29.30;54.50;;;;;;5049937;28;20322;-53
2021/06/20 12:37:20;;;;;;;;;;;29.30;54.60;;;;;;5054413;28;19921;-53
2021/06/20 12:39:54;;;;;;;;;;;29.20;54.50;;;;;;5053164;28;20334;-52
2021/06/20 12:42:22;;;;;;;;;;;29.20;55.10;;;;;;5041188;28;19921;-52
2021/06/20 12:44:51;;;;;;;;;;;29.20;54.50;;;;;;5043494;28;19951;-52
2021/06/20 12:47:29;;;;;;;;;;;29.20;54.60;;;;;;5043273;28;19971;-52
2021/06/20 12:49:56;;;;;;;;;;;29.20;54.60;;;;;;5049009;28;19920;-54
2021/06/20 12:52:27;;;;;;;;;;;29.20;54.60;;;;;;5053364;28;19960;-50
2021/06/20 12:54:54;;;;;;;;;;;29.20;54.60;;;;;;5054204;28;20011;-52
2021/06/20 12:57:31;;;;;;;;;;;29.20;54.60;;;;;;5054114;28;19924;-54
2021/06/20 13:00:08;;;;;;;;;;;29.20;54.70;;;;;;5054058;28;20288;-54
2021/06/20 13:02:36;;;;;;;;;;;29.20;54.70;;;;;;5044520;28;19925;-54
2021/06/20 13:05:03;;;;;;;;;;;29.20;54.70;;;;;;5036786;28;19925;-55
2021/06/20 13:07:35;;;;;;;;;;;29.20;54.70;;;;;;5045865;28;19921;-54
2021/06/20 13:10:07;;;;;;;;;;;29.20;54.70;;;;;;5052667;28;19921;-52
2021/06/20 13:12:34;;;;;;;;;;;29.20;54.80;;;;;;5052951;28;19966;-55
2021/06/20 13:15:06;;;;;;;;;;;29.20;54.80;;;;;;5053066;28;19925;-52
2021/06/20 13:17:33;;;;;;;;;;;29.20;54.80;;;;;;5052798;28;19963;-55
2021/06/20 13:20:00;;;;;;;;;;;29.10;54.80;;;;;;5052502;28;19959;-56
2021/06/20 13:22:27;;;;;;;;;;;29.20;54.90;;;;;;5052603;28;19921;-56
2021/06/20 13:24:54;;;;;;;;;;;29.10;54.90;;;;;;5052969;28;19921;-56
2021/06/20 13:27:21;;;;;;;;;;;29.10;55.00;;;;;;5050321;28;19921;-52
2021/06/20 13:29:48;;;;;;;;;;;29.10;55.00;;;;;;5037326;28;19920;-52
2021/06/20 13:32:16;;;;;;;;;;;29.10;55.10;;;;;;5052245;28;19920;-55
2021/06/20 13:34:43;;;;;;;;;;;29.10;55.10;;;;;;5035990;28;19970;-53
2021/06/20 13:37:10;;;;;;;;;;;29.10;55.80;;;;;;5035189;28;19921;-52
2021/06/20 13:39:41;;;;;;;;;;;29.10;55.30;;;;;;5035056;28;20488;-52
2021/06/20 13:42:08;;;;;;;;;;;29.00;55.20;;;;;;5051775;28;19924;-53
2021/06/20 13:44:35;;;;;;;;;;;29.00;55.30;;;;;;5041135;28;19921;-53
2021/06/20 13:47:02;;;;;;;;;;;29.00;55.40;;;;;;5051446;28;19921;-54
2021/06/20 13:49:30;;;;;;;;;;;29.00;55.40;;;;;;5053189;28;19928;-52
2021/06/20 13:51:57;;;;;;;;;;;29.00;55.40;;;;;;5039123;28;20419;-55